createdAt,value
2019-04-23T00:01:59.789Z,44.03
2019-04-23T00:04:05.718Z,44.90
2019-04-23T00:06:18.997Z,44.38
2019-04-23T00:08:26.052Z,43.93
2019-04-23T00:10:51.528Z,43.97
2019-04-23T00:15:04.893Z,43.71
2019-04-23T00:17:11.505Z,43.82
2019-04-23T00:19:15.276Z,44.09
2019-04-23T00:21:42.987Z,44.13
2019-04-23T00:23:59.545Z,43.36
2019-04-23T00:26:13.734Z,43.91
2019-04-23T00:28:31.822Z,43.98
2019-04-23T00:30:36.278Z,43.47
2019-04-23T00:32:40.845Z,44.05
2019-04-23T00:34:55.895Z,43.98
2019-04-23T00:37:01.613Z,43.75
2019-04-23T00:39:10.315Z,44.26
2019-04-23T00:41:16.199Z,44.27
2019-04-23T00:43:30.308Z,43.88
2019-04-23T00:45:39.823Z,44.18
2019-04-23T00:47:45.041Z,43.74
2019-04-23T00:50:08.611Z,43.44
2019-04-23T00:52:09.373Z,44.09
2019-04-23T00:54:20.712Z,44.15
2019-04-23T00:56:42.076Z,44.28
2019-04-23T00:58:36.629Z,44.11
2019-04-23T01:00:47.315Z,44.77
2019-04-23T01:02:57.318Z,44.88
2019-04-23T01:07:12.814Z,44.67
2019-04-23T01:09:22.680Z,44.60
2019-04-23T01:11:46.570Z,43.67
2019-04-23T01:13:43.184Z,44.44
2019-04-23T01:15:53.970Z,44.14
2019-04-23T01:18:02.262Z,44.90
2019-04-23T01:20:15.713Z,44.79
2019-04-23T01:22:04.214Z,44.71
2019-04-23T01:24:34.347Z,43.80
2019-04-23T01:27:39.319Z,44.42
2019-04-23T01:29:37.824Z,44.70
2019-04-23T01:31:41.272Z,44.72
2019-04-23T01:33:51.450Z,44.77
2019-04-23T01:36:09.627Z,45.12
2019-04-23T01:38:04.787Z,45.29
2019-04-23T01:40:24.006Z,45.04
2019-04-23T01:42:39.382Z,44.49
2019-04-23T01:44:42.358Z,44.70
2019-04-23T01:46:49.467Z,44.70
2019-04-23T01:48:58.656Z,44.75
2019-04-23T01:53:23.279Z,45.06
2019-04-23T01:55:27.993Z,44.74
2019-04-23T01:57:40.901Z,44.28
2019-04-23T01:59:50.920Z,44.91
2019-04-23T02:06:14.694Z,44.90
2019-04-23T02:08:20.872Z,44.41
2019-04-23T02:10:39.492Z,44.65
2019-04-23T02:12:47.730Z,44.87
2019-04-23T02:15:00.219Z,44.95
2019-04-23T02:17:00.169Z,44.20
2019-04-23T02:23:39.601Z,44.97
2019-04-23T02:28:07.560Z,44.67
2019-04-23T02:32:19.510Z,44.36
2019-04-23T02:34:50.440Z,44.56
2019-04-23T02:36:54.523Z,44.19
2019-04-23T02:41:05.274Z,44.48
2019-04-23T02:45:16.999Z,44.71
2019-04-23T02:49:44.190Z,44.41
2019-04-23T02:58:18.656Z,44.82
2019-04-23T03:00:28.352Z,44.99
2019-04-23T03:04:55.509Z,44.85
2019-04-23T03:06:56.370Z,44.75
2019-04-23T03:09:00.765Z,44.59
2019-04-23T03:11:23.450Z,44.45
2019-04-23T03:16:00.753Z,44.24
2019-04-23T03:18:40.075Z,44.40
2019-04-23T03:21:19.624Z,44.66
2019-04-23T03:23:46.703Z,44.36
2019-04-23T03:38:47.095Z,44.76
2019-04-23T03:40:45.642Z,44.39
2019-04-23T03:43:01.320Z,44.75
2019-04-23T03:45:07.547Z,44.86
2019-04-23T03:47:18.459Z,44.28
2019-04-23T03:49:20.630Z,44.57
2019-04-23T03:51:33.783Z,44.62
2019-04-23T03:54:20.922Z,44.81
2019-04-23T03:58:30.649Z,44.58
2019-04-23T04:00:37.218Z,44.50
2019-04-23T04:04:44.627Z,44.65
2019-04-23T04:09:26.035Z,43.78
2019-04-23T04:11:19.245Z,44.04
2019-04-23T04:18:03.957Z,43.89
2019-04-23T04:22:21.721Z,44.02
2019-04-23T04:26:37.807Z,43.44
2019-04-23T04:35:16.169Z,43.45
2019-04-23T04:39:26.617Z,43.13
2019-04-23T04:41:40.549Z,42.85
2019-04-23T04:43:50.692Z,42.62
2019-04-23T04:46:12.781Z,43.08
2019-04-23T04:47:59.075Z,42.13
2019-04-23T04:50:06.507Z,42.52
2019-04-23T04:54:22.663Z,42.25
2019-04-23T04:58:57.858Z,41.51
2019-04-23T05:01:07.628Z,42.21
2019-04-23T05:06:01.874Z,41.77
2019-04-23T05:09:52.156Z,42.49
2019-04-23T05:12:03.646Z,41.08
2019-04-23T05:14:00.044Z,41.01
2019-04-23T05:16:07.724Z,41.32
2019-04-23T05:20:37.396Z,40.51
2019-04-23T05:22:49.330Z,41.00
2019-04-23T05:24:51.465Z,40.07
2019-04-23T05:29:19.971Z,40.08
2019-04-23T05:33:28.745Z,39.67
2019-04-23T05:36:07.153Z,39.98
2019-04-23T05:40:09.898Z,39.41
2019-04-23T05:42:11.210Z,39.61
2019-04-23T05:44:21.574Z,40.29
2019-04-23T05:46:33.704Z,39.47
2019-04-23T05:48:42.017Z,38.24
2019-04-23T05:52:59.058Z,39.06
2019-04-23T05:57:14.297Z,38.83
2019-04-23T05:59:23.234Z,38.02
2019-04-23T06:03:48.946Z,38.12
2019-04-23T06:06:08.118Z,38.39
2019-04-23T06:08:03.067Z,38.88
2019-04-23T06:10:13.442Z,38.07
2019-04-23T06:12:20.045Z,37.47
2019-04-23T06:14:32.859Z,37.06
2019-04-23T06:17:06.298Z,36.67
2019-04-23T06:18:59.261Z,36.28
2019-04-23T06:21:02.609Z,36.38
2019-04-23T06:23:20.930Z,35.77
2019-04-23T06:27:32.340Z,35.20
2019-04-23T06:29:44.665Z,35.35
2019-04-23T06:31:52.614Z,34.65
2019-04-23T06:34:03.395Z,34.70
2019-04-23T06:36:12.402Z,34.17
2019-04-23T06:40:26.593Z,34.43
2019-04-23T06:42:54.062Z,32.84
2019-04-23T06:45:01.004Z,34.06
2019-04-23T06:47:06.965Z,33.71
2019-04-23T06:49:27.083Z,33.46
2019-04-23T06:51:34.936Z,32.75
2019-04-23T06:53:35.947Z,33.34
2019-04-23T06:55:49.597Z,32.67
2019-04-23T06:58:10.554Z,32.61
2019-04-23T07:00:07.916Z,33.28
2019-04-23T07:02:33.821Z,33.36
2019-04-23T07:06:38.331Z,32.31
2019-04-23T07:10:59.165Z,31.93
2019-04-23T07:13:14.716Z,31.13
2019-04-23T07:15:32.168Z,30.72
2019-04-23T07:17:24.679Z,31.41
2019-04-23T07:19:37.446Z,31.06
2019-04-23T07:21:43.647Z,30.59
2019-04-23T07:23:59.176Z,31.20
2019-04-23T07:26:21.287Z,31.32
2019-04-23T07:28:20.789Z,30.89
2019-04-23T07:30:38.352Z,30.79
2019-04-23T07:32:36.249Z,30.77
2019-04-23T07:34:49.488Z,30.12
2019-04-23T07:36:55.762Z,30.21
2019-04-23T07:39:43.084Z,30.53
2019-04-23T07:41:56.024Z,29.96
2019-04-23T07:47:11.728Z,29.69
2019-04-23T07:49:06.739Z,29.79
2019-04-23T07:51:14.208Z,29.92
2019-04-23T07:53:22.904Z,28.96
2019-04-23T07:55:58.946Z,29.74
2019-04-23T07:57:49.602Z,29.49
2019-04-23T08:02:17.211Z,30.23
2019-04-23T08:04:16.532Z,29.13
2019-04-23T08:06:23.417Z,29.19
2019-04-23T08:08:30.193Z,28.81
2019-04-23T08:11:12.458Z,28.81
2019-04-23T08:13:05.982Z,28.63
2019-04-23T08:15:13.305Z,30.08
2019-04-23T08:17:16.225Z,29.13
2019-04-23T08:19:33.109Z,29.21
2019-04-23T08:21:32.191Z,28.89
2019-04-23T08:26:33.634Z,28.71
2019-04-23T08:28:48.377Z,28.44
2019-04-23T08:30:56.785Z,28.22
2019-04-23T08:33:09.100Z,27.09
2019-04-23T08:35:06.449Z,27.44
2019-04-23T08:37:25.325Z,27.16
2019-04-23T08:39:41.847Z,26.88
2019-04-23T08:42:01.341Z,25.81
2019-04-23T08:43:57.221Z,27.23
2019-04-23T08:46:33.525Z,26.32
2019-04-23T08:48:32.849Z,25.93
2019-04-23T08:50:44.278Z,26.54
2019-04-23T08:53:15.014Z,26.41
2019-04-23T08:57:14.506Z,25.73
2019-04-23T08:59:35.065Z,26.25
2019-04-23T09:01:43.560Z,25.92
2019-04-23T09:03:39.159Z,27.56
2019-04-23T09:12:28.344Z,25.91
2019-04-23T09:14:31.522Z,26.09
2019-04-23T09:16:52.849Z,25.68
2019-04-23T09:19:04.578Z,25.79
2019-04-23T09:21:10.560Z,25.87
2019-04-23T09:23:20.836Z,25.37
2019-04-23T09:29:53.602Z,25.30
2019-04-23T09:34:38.731Z,25.79
2019-04-23T09:37:08.206Z,25.73
2019-04-23T09:39:28.960Z,25.60
2019-04-23T09:41:51.794Z,25.06
2019-04-23T09:47:00.399Z,25.29
2019-04-23T09:49:14.962Z,25.48
2019-04-23T09:51:17.622Z,24.75
2019-04-23T10:07:17.985Z,23.50
2019-04-23T10:09:14.566Z,23.71
2019-04-23T10:23:29.555Z,24.75
2019-04-23T10:25:38.462Z,23.83
2019-04-23T10:27:53.274Z,23.52
2019-04-23T10:29:57.085Z,24.10
2019-04-23T10:32:05.259Z,23.36
2019-04-23T10:34:14.818Z,24.10
2019-04-23T10:36:25.886Z,23.86
2019-04-23T10:38:34.639Z,23.35
2019-04-23T10:40:47.873Z,23.20
2019-04-23T10:42:54.359Z,23.02
2019-04-23T10:45:35.190Z,22.76
2019-04-23T10:48:32.664Z,23.51
2019-04-23T10:50:46.219Z,23.03
2019-04-23T10:52:53.767Z,22.87
2019-04-23T10:54:59.382Z,23.11
2019-04-23T10:57:14.826Z,23.36
2019-04-23T11:01:52.952Z,23.44
2019-04-23T11:04:12.011Z,23.16
2019-04-23T11:06:16.535Z,23.74
2019-04-23T11:08:18.948Z,23.47
2019-04-23T11:10:28.675Z,22.32
2019-04-23T11:12:46.188Z,21.80
2019-04-23T11:17:35.473Z,22.18
2019-04-23T11:19:44.006Z,22.51
2019-04-23T11:21:40.741Z,22.82
2019-04-23T11:24:02.555Z,23.37
2019-04-23T11:26:06.839Z,23.57
2019-04-23T11:32:46.668Z,23.49
2019-04-23T11:39:16.477Z,22.70
2019-04-23T11:41:20.746Z,22.88
2019-04-23T11:43:32.956Z,23.54
2019-04-23T11:45:38.781Z,23.24
2019-04-23T11:48:14.219Z,22.48
2019-04-23T11:50:01.514Z,22.91
2019-04-23T11:52:18.895Z,22.78
2019-04-23T11:54:12.107Z,23.07
2019-04-23T11:56:44.762Z,22.32
2019-04-23T11:58:33.283Z,22.19
2019-04-23T12:00:56.222Z,23.21
2019-04-23T12:03:07.605Z,22.81
2019-04-23T12:06:07.362Z,23.17
2019-04-23T12:08:16.966Z,22.96
2019-04-23T12:10:29.237Z,22.95
2019-04-23T12:12:33.334Z,22.79
2019-04-23T12:15:03.514Z,22.93
2019-04-23T12:17:18.646Z,22.57
2019-04-23T12:21:37.365Z,23.50
2019-04-23T12:23:48.450Z,23.08
2019-04-23T12:25:52.783Z,22.69
2019-04-23T12:27:59.568Z,22.72
2019-04-23T12:32:47.879Z,22.61
2019-04-23T12:34:46.834Z,23.65
2019-04-23T12:36:50.929Z,22.71
2019-04-23T12:39:04.622Z,23.20
2019-04-23T12:41:12.915Z,22.97
2019-04-23T12:43:19.133Z,23.24
2019-04-23T12:45:43.983Z,22.49
2019-04-23T12:47:51.929Z,22.89
2019-04-23T12:52:12.093Z,22.38
2019-04-23T12:54:35.316Z,22.92
2019-04-23T12:56:41.900Z,22.68
2019-04-23T12:58:27.857Z,22.62
2019-04-23T13:00:38.856Z,22.88
2019-04-23T13:05:23.861Z,23.10
2019-04-23T13:07:17.902Z,22.30
2019-04-23T13:11:34.826Z,22.01
2019-04-23T13:13:50.283Z,22.58
2019-04-23T13:15:55.219Z,22.39
2019-04-23T13:18:03.319Z,22.95
2019-04-23T13:20:19.995Z,23.05
2019-04-23T13:22:30.722Z,22.57
2019-04-23T13:24:53.926Z,22.53
2019-04-23T13:27:06.112Z,22.34
2019-04-23T13:29:23.755Z,22.49
2019-04-23T13:31:14.800Z,22.43
2019-04-23T13:40:01.347Z,21.92
2019-04-23T13:42:25.105Z,21.72
2019-04-23T13:44:27.645Z,22.26
2019-04-23T13:46:32.447Z,23.12
2019-04-23T13:48:35.971Z,22.03
2019-04-23T13:50:59.698Z,21.59
2019-04-23T13:53:28.760Z,21.65
2019-04-23T13:57:56.018Z,21.38
2019-04-23T13:59:38.955Z,22.41
2019-04-23T14:01:54.440Z,21.65
2019-04-23T14:03:48.248Z,21.57
2019-04-23T14:10:46.630Z,21.89
2019-04-23T14:13:08.819Z,22.68
2019-04-23T14:17:26.812Z,22.13
2019-04-23T14:19:16.544Z,21.89
2019-04-23T14:21:34.521Z,22.07
2019-04-23T14:28:16.007Z,22.23
2019-04-23T14:32:22.347Z,22.40
2019-04-23T14:34:40.839Z,22.76
2019-04-23T14:36:42.562Z,22.81
2019-04-23T14:38:52.774Z,22.86
2019-04-23T14:41:09.590Z,22.76
2019-04-23T14:43:25.901Z,22.22
2019-04-23T14:45:44.231Z,22.68
2019-04-23T14:47:48.831Z,23.28
2019-04-23T14:50:28.172Z,23.43
2019-04-23T14:52:21.902Z,22.69
2019-04-23T14:55:06.028Z,22.63
2019-04-23T14:56:42.044Z,22.69
2019-04-23T15:01:16.059Z,22.93
2019-04-23T15:03:25.210Z,23.25
2019-04-23T15:05:17.551Z,22.71
2019-04-23T15:07:28.521Z,22.59
2019-04-23T15:09:42.984Z,23.45
2019-04-23T15:16:17.134Z,23.24
2019-04-23T15:21:19.046Z,22.47
2019-04-23T15:23:25.699Z,22.82
2019-04-23T15:28:03.670Z,23.60
2019-04-23T15:29:27.426Z,22.88
2019-04-23T15:36:25.366Z,23.42
2019-04-23T15:40:27.873Z,22.91
2019-04-23T15:42:45.233Z,23.26
2019-04-23T15:44:48.817Z,23.39
2019-04-23T15:51:30.896Z,23.35
2019-04-23T15:53:21.117Z,23.42
2019-04-23T15:58:00.937Z,23.32
2019-04-23T15:59:55.897Z,23.44
2019-04-23T16:01:43.269Z,23.64
2019-04-23T16:03:49.645Z,23.03
2019-04-23T16:05:59.392Z,23.33
2019-04-23T16:08:47.632Z,23.77
2019-04-23T16:10:54.527Z,23.76
2019-04-23T16:12:56.699Z,23.71
2019-04-23T16:17:18.216Z,23.40
2019-04-23T16:19:52.869Z,23.45
2019-04-23T16:24:07.171Z,23.80
2019-04-23T16:26:15.857Z,23.63
2019-04-23T16:28:38.461Z,23.35
2019-04-23T16:30:33.252Z,23.86
2019-04-23T16:33:13.106Z,23.00
2019-04-23T16:35:28.362Z,23.62
2019-04-23T16:37:27.296Z,23.42
2019-04-23T16:39:40.419Z,23.83
2019-04-23T16:41:54.790Z,23.65
2019-04-23T16:44:06.281Z,23.90
2019-04-23T16:46:15.902Z,23.99
2019-04-23T16:50:40.941Z,24.25
2019-04-23T16:52:42.257Z,24.34
2019-04-23T17:01:12.354Z,24.07
2019-04-23T17:05:39.479Z,24.35
2019-04-23T17:08:06.668Z,24.58
2019-04-23T17:12:10.473Z,24.04
2019-04-23T17:14:21.559Z,24.59
2019-04-23T17:16:33.926Z,24.65
2019-04-23T17:18:38.837Z,24.91
2019-04-23T17:20:52.046Z,24.52
2019-04-23T17:23:05.232Z,24.58
2019-04-23T17:25:15.343Z,25.24
2019-04-23T17:29:28.582Z,25.11
2019-04-23T17:31:39.545Z,25.57
2019-04-23T17:33:56.443Z,25.16
2019-04-23T17:38:52.991Z,25.41
2019-04-23T17:41:13.808Z,25.74
2019-04-23T17:43:14.744Z,25.69
2019-04-23T17:45:40.868Z,25.96
2019-04-23T17:48:07.159Z,25.80
2019-04-23T17:50:13.648Z,25.94
2019-04-23T17:54:36.701Z,25.59
2019-04-23T17:57:05.439Z,26.50
2019-04-23T17:58:58.630Z,26.77
2019-04-23T18:01:17.748Z,26.96
2019-04-23T18:03:13.041Z,26.66
2019-04-23T18:05:18.256Z,26.46
2019-04-23T18:09:49.448Z,26.55
2019-04-23T18:14:02.342Z,26.44
2019-04-23T18:16:15.947Z,26.25
2019-04-23T18:18:33.590Z,26.60
2019-04-23T18:20:44.011Z,26.99
2019-04-23T18:23:00.499Z,26.81
2019-04-23T18:32:07.563Z,27.92
2019-04-23T18:34:10.129Z,27.94
2019-04-23T18:36:13.199Z,28.03
2019-04-23T18:40:54.267Z,27.50
2019-04-23T18:45:03.595Z,27.61
2019-04-23T18:47:20.916Z,27.64
2019-04-23T18:49:20.162Z,27.80
2019-04-23T18:51:21.469Z,27.85
2019-04-23T18:53:43.532Z,27.92
2019-04-23T18:56:06.666Z,29.01
2019-04-23T18:57:57.357Z,28.67
2019-04-23T19:00:18.746Z,28.49
2019-04-23T19:04:54.280Z,28.19
2019-04-23T19:07:27.446Z,28.12
2019-04-23T19:10:07.600Z,28.32
2019-04-23T19:12:16.225Z,29.17
2019-04-23T19:14:35.166Z,28.82
2019-04-23T19:18:45.181Z,28.90
2019-04-23T19:21:00.922Z,28.91
2019-04-23T19:23:11.343Z,28.92
2019-04-23T19:25:16.264Z,29.39
2019-04-23T19:27:29.922Z,29.16
2019-04-23T19:29:40.178Z,29.18
2019-04-23T19:31:56.771Z,29.40
2019-04-23T19:34:21.363Z,28.99
2019-04-23T19:36:26.149Z,29.07
2019-04-23T19:38:32.999Z,28.71
2019-04-23T19:40:50.503Z,28.83
2019-04-23T19:44:53.880Z,28.93
2019-04-23T19:47:17.102Z,29.32
2019-04-23T19:49:28.323Z,29.49
2019-04-23T19:51:42.230Z,29.22
2019-04-23T19:56:19.237Z,29.60
2019-04-23T19:58:04.980Z,29.34
2019-04-23T20:00:11.313Z,29.57
2019-04-23T20:02:27.119Z,30.04
2019-04-23T20:04:39.463Z,29.43
2019-04-23T20:11:06.613Z,30.05
2019-04-23T20:13:12.645Z,29.86
2019-04-23T20:15:14.191Z,29.84
2019-04-23T20:17:39.483Z,29.72
2019-04-23T20:22:00.347Z,29.67
2019-04-23T20:40:23.671Z,30.24
2019-04-23T20:42:39.081Z,30.42
2019-04-23T20:46:56.407Z,30.45
2019-04-23T20:49:10.970Z,30.38
2019-04-23T20:51:08.666Z,30.59
2019-04-23T20:53:13.452Z,31.53
2019-04-23T20:55:41.188Z,30.96
2019-04-23T20:57:51.712Z,31.14
2019-04-23T21:00:08.947Z,30.96
2019-04-23T21:03:06.712Z,31.28
2019-04-23T21:05:00.407Z,31.32
2019-04-23T21:07:15.961Z,31.35
2019-04-23T21:11:24.227Z,31.19
2019-04-23T21:13:50.614Z,31.18
2019-04-23T21:17:59.572Z,31.81
2019-04-23T21:20:10.548Z,31.43
2019-04-23T21:24:16.886Z,32.15
2019-04-23T21:26:26.336Z,31.97
2019-04-23T21:33:11.925Z,32.00
2019-04-23T21:35:37.061Z,32.12
2019-04-23T21:37:55.182Z,32.42
2019-04-23T21:40:46.667Z,32.13
2019-04-23T21:42:54.702Z,32.92
2019-04-23T21:44:45.658Z,32.39
2019-04-23T21:46:56.533Z,32.92
2019-04-23T21:51:32.745Z,33.03
2019-04-23T21:53:25.950Z,32.78
2019-04-23T21:55:39.125Z,33.00
2019-04-23T21:57:53.378Z,33.04
2019-04-23T21:59:56.177Z,33.33
2019-04-23T22:02:09.184Z,33.60
2019-04-23T22:08:38.646Z,33.12
2019-04-23T22:11:00.025Z,33.64
2019-04-23T22:13:02.157Z,33.54
2019-04-23T22:14:57.853Z,33.75
2019-04-23T22:17:15.347Z,34.08
2019-04-23T22:21:41.165Z,33.83
2019-04-23T22:23:52.617Z,34.24
2019-04-23T22:25:56.913Z,34.07
2019-04-23T22:27:58.196Z,34.57
2019-04-23T22:30:02.940Z,34.28
2019-04-23T22:32:23.405Z,34.12
2019-04-23T22:34:36.828Z,33.97
2019-04-23T22:36:39.370Z,34.50
2019-04-23T22:38:49.197Z,34.66
2019-04-23T22:41:01.769Z,35.08
2019-04-23T22:47:32.405Z,34.86
2019-04-23T22:49:45.317Z,34.60
2019-04-23T22:51:55.109Z,34.79
2019-04-23T22:56:12.122Z,34.98
2019-04-23T22:58:09.623Z,35.10
2019-04-23T23:00:46.392Z,34.77
2019-04-23T23:02:58.027Z,35.01
2019-04-23T23:09:34.237Z,35.53
2019-04-23T23:11:34.915Z,35.10
2019-04-23T23:13:57.465Z,35.42
2019-04-23T23:15:53.314Z,35.59
2019-04-23T23:18:07.319Z,35.83
2019-04-23T23:22:41.438Z,36.22
2019-04-23T23:24:27.293Z,36.24
2019-04-23T23:26:47.841Z,35.78
2019-04-23T23:28:44.733Z,36.23
2019-04-23T23:31:05.397Z,36.34
2019-04-23T23:33:14.830Z,36.24
2019-04-23T23:35:28.405Z,36.30
2019-04-23T23:37:19.205Z,36.34
2019-04-23T23:39:54.924Z,36.71
2019-04-23T23:41:53.008Z,36.89
2019-04-23T23:44:26.263Z,37.02
2019-04-23T23:46:20.579Z,36.47
2019-04-23T23:50:35.093Z,36.70
2019-04-23T23:52:51.740Z,36.69
2019-04-23T23:54:57.819Z,36.65
